createdAt,value
2019-05-09T00:02:14.876Z,-76
2019-05-09T00:04:44.163Z,-76
2019-05-09T00:07:14.062Z,-76
2019-05-09T00:09:44.149Z,-76
2019-05-09T00:12:14.367Z,-76
2019-05-09T00:14:43.748Z,-76
2019-05-09T00:17:14.098Z,-76
2019-05-09T00:19:44.370Z,-76
2019-05-09T00:22:13.841Z,-76
2019-05-09T00:24:44.729Z,-76
2019-05-09T00:27:14.350Z,-76
2019-05-09T00:29:47.727Z,-76
2019-05-09T00:32:24.647Z,-76
2019-05-09T00:35:14.115Z,-76
2019-05-09T00:37:53.693Z,-76
2019-05-09T00:40:23.990Z,-76
2019-05-09T00:42:55.721Z,-75
2019-05-09T00:45:30.355Z,-75
2019-05-09T00:47:59.470Z,-76
2019-05-09T00:50:29.654Z,-76
2019-05-09T00:52:59.017Z,-76
2019-05-09T00:55:28.119Z,-76
2019-05-09T00:57:57.469Z,-75
2019-05-09T01:00:26.573Z,-75
2019-05-09T01:02:55.660Z,-76
2019-05-09T01:05:24.771Z,-76
2019-05-09T01:07:54.118Z,-75
2019-05-09T01:10:23.858Z,-76
2019-05-09T01:12:54.238Z,-76
2019-05-09T01:15:24.087Z,-75
2019-05-09T01:17:53.742Z,-76
2019-05-09T01:20:24.151Z,-76
2019-05-09T01:22:54.068Z,-76
2019-05-09T01:25:24.208Z,-76
2019-05-09T01:27:53.993Z,-76
2019-05-09T01:30:24.177Z,-76
2019-05-09T01:32:54.986Z,-76
2019-05-09T01:35:24.359Z,-76
2019-05-09T01:37:54.003Z,-76
2019-05-09T01:40:23.905Z,-76
2019-05-09T01:42:53.876Z,-76
2019-05-09T01:45:23.775Z,-76
2019-05-09T01:47:53.795Z,-76
2019-05-09T01:50:23.410Z,-75
2019-05-09T01:52:53.430Z,-76
2019-05-09T01:55:24.254Z,-76
2019-05-09T01:57:53.802Z,-76
2019-05-09T02:00:23.937Z,-76
2019-05-09T02:02:54.068Z,-76
2019-05-09T02:05:24.141Z,-76
2019-05-09T02:07:54.182Z,-76
2019-05-09T02:10:23.718Z,-76
2019-05-09T02:12:53.828Z,-75
2019-05-09T02:15:27.454Z,-77
2019-05-09T02:18:01.798Z,-76
2019-05-09T02:20:29.535Z,-75
2019-05-09T02:22:58.898Z,-76
2019-05-09T02:25:28.268Z,-76
2019-05-09T02:27:57.640Z,-76
2019-05-09T02:30:26.705Z,-76
2019-05-09T02:32:55.812Z,-76
2019-05-09T02:35:28.486Z,-77
2019-05-09T02:37:58.678Z,-76
2019-05-09T02:40:28.554Z,-76
2019-05-09T02:42:58.992Z,-76
2019-05-09T02:45:29.922Z,-77
2019-05-09T02:47:59.283Z,-76
2019-05-09T02:50:28.774Z,-76
2019-05-09T02:52:58.993Z,-76
2019-05-09T02:55:28.904Z,-77
2019-05-09T02:57:59.360Z,-76
2019-05-09T03:00:30.103Z,-76
2019-05-09T03:03:03.832Z,-77
2019-05-09T03:05:33.498Z,-77
2019-05-09T03:08:02.865Z,-77
2019-05-09T03:10:31.939Z,-77
2019-05-09T03:13:01.461Z,-77
2019-05-09T03:15:30.860Z,-76
2019-05-09T03:18:00.245Z,-76
2019-05-09T03:20:48.967Z,-76
2019-05-09T03:23:19.125Z,-76
2019-05-09T03:25:48.568Z,-76
2019-05-09T03:28:19.358Z,-76
2019-05-09T03:30:50.420Z,-76
2019-05-09T03:33:20.365Z,-76
2019-05-09T03:35:49.512Z,-76
2019-05-09T03:38:18.654Z,-75
2019-05-09T03:40:48.002Z,-76
2019-05-09T03:43:18.376Z,-76
2019-05-09T03:45:52.482Z,-76
2019-05-09T03:48:39.679Z,-76
2019-05-09T03:51:09.001Z,-75
2019-05-09T03:53:38.095Z,-76
2019-05-09T03:56:08.853Z,-76
2019-05-09T03:58:38.587Z,-76
2019-05-09T04:01:10.344Z,-76
2019-05-09T04:03:38.557Z,-76
2019-05-09T04:06:08.317Z,-76
2019-05-09T04:08:37.809Z,-75
2019-05-09T04:11:08.585Z,-75
2019-05-09T04:13:39.476Z,-77
2019-05-09T04:16:08.808Z,-76
2019-05-09T04:18:40.266Z,-76
2019-05-09T04:21:08.608Z,-76
2019-05-09T04:23:38.002Z,-76
2019-05-09T04:26:11.797Z,-76
2019-05-09T04:28:40.943Z,-76
2019-05-09T04:31:10.279Z,-76
2019-05-09T04:33:39.386Z,-76
2019-05-09T04:36:09.010Z,-76
2019-05-09T04:38:39.897Z,-76
2019-05-09T04:41:08.850Z,-75
2019-05-09T04:43:39.855Z,-75
2019-05-09T04:46:12.846Z,-75
2019-05-09T04:48:39.986Z,-76
2019-05-09T04:51:09.149Z,-77
2019-05-09T04:53:39.968Z,-76
2019-05-09T04:56:11.068Z,-76
2019-05-09T04:58:40.737Z,-77
2019-05-09T05:01:11.506Z,-78
2019-05-09T05:03:41.942Z,-76
2019-05-09T05:06:11.016Z,-76
2019-05-09T05:08:40.119Z,-76
2019-05-09T05:11:09.478Z,-75
2019-05-09T05:13:38.843Z,-75
2019-05-09T05:16:08.528Z,-75
2019-05-09T05:18:37.927Z,-76
2019-05-09T05:21:07.827Z,-76
2019-05-09T05:23:41.242Z,-77
2019-05-09T05:26:10.581Z,-76
2019-05-09T05:28:39.674Z,-76
2019-05-09T05:31:09.049Z,-75
2019-05-09T05:33:57.838Z,-75
2019-05-09T05:36:27.996Z,-76
2019-05-09T05:38:58.482Z,-75
2019-05-09T05:41:28.436Z,-75
2019-05-09T05:43:58.139Z,-76
2019-05-09T05:46:40.545Z,-76
2019-05-09T05:49:09.648Z,-75
2019-05-09T05:51:50.770Z,-76
2019-05-09T05:54:20.731Z,-76
2019-05-09T05:56:49.840Z,-75
2019-05-09T05:59:19.593Z,-76
2019-05-09T06:01:48.924Z,-75
2019-05-09T06:04:18.801Z,-75
2019-05-09T06:06:48.439Z,-75
2019-05-09T06:09:19.002Z,-75
2019-05-09T06:11:48.808Z,-75
2019-05-09T06:14:18.694Z,-75
2019-05-09T06:16:48.808Z,-75
2019-05-09T06:19:18.383Z,-75
2019-05-09T06:21:51.715Z,-76
2019-05-09T06:24:19.086Z,-75
2019-05-09T06:26:48.190Z,-75
2019-05-09T06:29:17.907Z,-75
2019-05-09T06:31:48.358Z,-75
2019-05-09T06:34:18.802Z,-75
2019-05-09T06:36:48.845Z,-75
2019-05-09T06:39:18.251Z,-75
2019-05-09T06:41:48.407Z,-76
2019-05-09T06:44:20.684Z,-75
2019-05-09T06:46:51.626Z,-77
2019-05-09T06:49:28.381Z,-75
2019-05-09T06:51:53.669Z,-75
2019-05-09T06:54:23.013Z,-75
2019-05-09T06:56:52.378Z,-75
2019-05-09T06:59:21.479Z,-76
2019-05-09T07:01:52.188Z,-75
2019-05-09T07:04:22.939Z,-74
2019-05-09T07:06:58.635Z,-75
2019-05-09T07:09:28.794Z,-75
2019-05-09T07:11:58.706Z,-75
2019-05-09T07:14:33.045Z,-75
2019-05-09T07:17:00.190Z,-76
2019-05-09T07:19:29.311Z,-75
2019-05-09T07:22:02.963Z,-76
2019-05-09T07:24:33.962Z,-75
2019-05-09T07:27:03.095Z,-77
2019-05-09T07:29:33.842Z,-75
2019-05-09T07:32:04.846Z,-75
2019-05-09T07:34:47.618Z,-75
2019-05-09T07:37:18.613Z,-75
2019-05-09T07:39:49.658Z,-75
2019-05-09T07:42:18.841Z,-75
2019-05-09T07:44:51.995Z,-75
2019-05-09T07:47:19.002Z,-75
2019-05-09T07:49:48.280Z,-77
2019-05-09T07:52:18.560Z,-75
2019-05-09T07:54:48.411Z,-75
2019-05-09T07:57:18.299Z,-75
2019-05-09T07:59:47.957Z,-75
2019-05-09T08:02:17.771Z,-75
2019-05-09T08:04:48.876Z,-76
2019-05-09T08:07:18.166Z,-75
2019-05-09T08:09:47.699Z,-76
2019-05-09T08:12:17.987Z,-75
2019-05-09T08:15:06.841Z,-75
2019-05-09T08:17:18.498Z,-75
2019-05-09T08:19:49.490Z,-75
2019-05-09T08:22:24.813Z,-76
2019-05-09T08:24:49.365Z,-75
2019-05-09T08:27:18.710Z,-75
2019-05-09T08:29:48.071Z,-75
2019-05-09T08:32:18.099Z,-75
2019-05-09T08:34:48.275Z,-75
2019-05-09T08:37:17.680Z,-75
2019-05-09T08:39:48.403Z,-75
2019-05-09T08:42:20.045Z,-75
2019-05-09T08:44:49.067Z,-77
2019-05-09T08:47:18.558Z,-77
2019-05-09T08:49:58.656Z,-77
2019-05-09T08:52:28.793Z,-76
2019-05-09T08:54:59.130Z,-76
2019-05-09T08:57:28.989Z,-76
2019-05-09T08:59:59.066Z,-76
2019-05-09T09:02:28.467Z,-77
2019-05-09T09:04:58.494Z,-78
2019-05-09T09:07:29.763Z,-77
2019-05-09T09:09:58.397Z,-78
2019-05-09T09:12:34.212Z,-78
2019-05-09T09:14:58.917Z,-78
2019-05-09T09:17:28.294Z,-78
2019-05-09T09:19:58.303Z,-75
2019-05-09T09:22:28.501Z,-77
2019-05-09T09:24:58.623Z,-75
2019-05-09T09:27:29.281Z,-76
2019-05-09T09:30:00.243Z,-75
2019-05-09T09:32:29.535Z,-78
2019-05-09T09:34:58.928Z,-77
2019-05-09T09:37:37.649Z,-76
2019-05-09T09:39:58.758Z,-77
2019-05-09T09:42:28.409Z,-75
2019-05-09T09:44:58.595Z,-76
2019-05-09T09:47:28.598Z,-76
2019-05-09T09:50:00.218Z,-76
2019-05-09T09:52:32.077Z,-76
2019-05-09T09:55:00.265Z,-76
2019-05-09T09:57:29.338Z,-76
2019-05-09T10:00:00.318Z,-76
2019-05-09T10:02:31.310Z,-77
2019-05-09T10:05:00.409Z,-77
2019-05-09T10:07:29.814Z,-76
2019-05-09T10:09:58.964Z,-77
2019-05-09T10:12:29.113Z,-78
2019-05-09T10:15:00.157Z,-78
2019-05-09T10:17:43.161Z,-78
2019-05-09T10:20:22.681Z,-78
2019-05-09T10:23:00.417Z,-79
2019-05-09T10:25:22.914Z,-78
2019-05-09T10:27:52.257Z,-78
2019-05-09T10:30:29.488Z,-78
2019-05-09T10:32:58.625Z,-78
2019-05-09T10:35:28.016Z,-78
2019-05-09T10:37:58.916Z,-78
2019-05-09T10:40:28.266Z,-78
2019-05-09T10:42:59.189Z,-77
2019-05-09T10:45:30.221Z,-77
2019-05-09T10:47:59.568Z,-76
2019-05-09T10:50:33.672Z,-77
2019-05-09T10:53:00.029Z,-78
2019-05-09T10:55:29.155Z,-79
2019-05-09T10:58:02.416Z,-75
2019-05-09T11:00:29.343Z,-76
2019-05-09T11:02:58.488Z,-76
2019-05-09T11:05:27.894Z,-75
2019-05-09T11:07:58.749Z,-77
2019-05-09T11:10:31.965Z,-76
2019-05-09T11:12:59.207Z,-76
2019-05-09T11:15:28.328Z,-76
2019-05-09T11:17:57.790Z,-76
2019-05-09T11:20:28.417Z,-77
2019-05-09T11:22:58.227Z,-76
2019-05-09T11:25:27.957Z,-78
2019-05-09T11:28:10.103Z,-76
2019-05-09T11:30:28.379Z,-76
2019-05-09T11:32:59.636Z,-76
2019-05-09T11:35:28.535Z,-76
2019-05-09T11:37:58.751Z,-76
2019-05-09T11:40:28.332Z,-76
2019-05-09T11:42:57.395Z,-76
2019-05-09T11:45:28.066Z,-76
2019-05-09T11:47:58.232Z,-76
2019-05-09T11:50:27.599Z,-76
2019-05-09T11:52:59.781Z,-76
2019-05-09T11:55:35.430Z,-76
2019-05-09T11:57:59.349Z,-76
2019-05-09T12:00:29.432Z,-76
2019-05-09T12:02:58.738Z,-76
2019-05-09T12:05:28.925Z,-76
2019-05-09T12:07:58.469Z,-76
2019-05-09T12:10:28.591Z,-76
2019-05-09T12:12:58.139Z,-76
2019-05-09T12:15:29.095Z,-76
2019-05-09T12:18:04.029Z,-77
2019-05-09T12:20:29.055Z,-76
2019-05-09T12:22:58.551Z,-76
2019-05-09T12:25:28.286Z,-77
2019-05-09T12:27:58.424Z,-76
2019-05-09T12:30:28.600Z,-76
2019-05-09T12:32:58.851Z,-76
2019-05-09T12:35:28.520Z,-76
2019-05-09T12:37:57.655Z,-76
2019-05-09T12:40:27.035Z,-76
2019-05-09T12:42:56.436Z,-76
2019-05-09T12:45:25.726Z,-76
2019-05-09T12:48:10.026Z,-75
2019-05-09T12:50:25.831Z,-75
2019-05-09T12:52:55.262Z,-75
2019-05-09T12:55:24.382Z,-76
2019-05-09T12:57:53.767Z,-76
2019-05-09T13:00:23.005Z,-77
2019-05-09T13:02:52.108Z,-76
2019-05-09T13:05:21.481Z,-75
2019-05-09T13:07:50.863Z,-76
2019-05-09T13:10:20.199Z,-75
2019-05-09T13:12:49.585Z,-76
2019-05-09T13:15:21.344Z,-75
2019-05-09T13:17:51.605Z,-76
2019-05-09T13:20:20.710Z,-75
2019-05-09T13:22:50.136Z,-76
2019-05-09T13:25:19.485Z,-78
2019-05-09T13:27:52.497Z,-79
2019-05-09T13:30:19.987Z,-78
2019-05-09T13:32:49.370Z,-77
2019-05-09T13:35:19.815Z,-78
2019-05-09T13:37:49.721Z,-77
2019-05-09T13:40:19.288Z,-77
2019-05-09T13:42:49.489Z,-78
2019-05-09T13:45:19.007Z,-78
2019-05-09T13:47:49.659Z,-77
2019-05-09T13:50:18.899Z,-78
2019-05-09T13:52:48.231Z,-78
2019-05-09T13:55:18.003Z,-78
2019-05-09T13:57:48.549Z,-78
2019-05-09T14:00:18.731Z,-79
2019-05-09T14:02:48.782Z,-78
2019-05-09T14:05:19.234Z,-77
2019-05-09T14:07:53.841Z,-77
2019-05-09T14:10:20.046Z,-77
2019-05-09T14:13:04.312Z,-77
2019-05-09T14:15:20.531Z,-78
2019-05-09T14:17:53.684Z,-78
2019-05-09T14:20:20.638Z,-77
2019-05-09T14:22:49.748Z,-78
2019-05-09T14:25:19.795Z,-78
2019-05-09T14:27:52.249Z,-77
2019-05-09T14:30:20.526Z,-77
2019-05-09T14:32:50.179Z,-77
2019-05-09T14:35:19.606Z,-78
2019-05-09T14:37:48.998Z,-77
2019-05-09T14:40:18.071Z,-77
2019-05-09T14:42:49.520Z,-78
2019-05-09T14:45:18.578Z,-78
2019-05-09T14:47:47.650Z,-76
2019-05-09T14:50:18.121Z,-76
2019-05-09T14:52:49.324Z,-76
2019-05-09T14:55:18.400Z,-75
2019-05-09T14:57:48.124Z,-75
2019-05-09T15:00:18.989Z,-75
2019-05-09T15:02:48.909Z,-75
2019-05-09T15:05:19.024Z,-75
2019-05-09T15:07:48.643Z,-75
2019-05-09T15:10:18.932Z,-75
2019-05-09T15:12:48.659Z,-75
2019-05-09T15:15:18.438Z,-76
2019-05-09T15:17:49.349Z,-77
2019-05-09T15:20:18.765Z,-78
2019-05-09T15:22:48.038Z,-78
2019-05-09T15:25:18.997Z,-77
2019-05-09T15:27:47.955Z,-78
2019-05-09T15:30:18.709Z,-77
2019-05-09T15:32:51.248Z,-78
2019-05-09T15:35:19.002Z,-79
2019-05-09T15:37:48.346Z,-77
2019-05-09T15:40:17.906Z,-77
2019-05-09T15:42:47.998Z,-78
2019-05-09T15:45:18.374Z,-77
2019-05-09T15:47:48.386Z,-78
2019-05-09T15:50:22.943Z,-79
2019-05-09T15:52:48.623Z,-81
2019-05-09T15:55:17.917Z,-79
2019-05-09T15:57:48.582Z,-78
2019-05-09T16:00:19.264Z,-78
2019-05-09T16:02:48.926Z,-77
2019-05-09T16:05:18.352Z,-78
2019-05-09T16:07:48.349Z,-78
2019-05-09T16:10:18.509Z,-78
2019-05-09T16:12:48.817Z,-78
2019-05-09T16:15:18.496Z,-77
2019-05-09T16:17:48.393Z,-78
2019-05-09T16:20:34.802Z,-78
2019-05-09T16:22:48.763Z,-78
2019-05-09T16:25:18.748Z,-78
2019-05-09T16:27:48.567Z,-78
2019-05-09T16:30:17.930Z,-80
2019-05-09T16:32:48.059Z,-78
2019-05-09T16:35:18.186Z,-78
2019-05-09T16:38:00.946Z,-78
2019-05-09T16:40:18.917Z,-77
2019-05-09T16:42:48.259Z,-78
2019-05-09T16:45:18.262Z,-78
2019-05-09T16:47:48.530Z,-78
2019-05-09T16:50:18.460Z,-78
2019-05-09T16:52:48.768Z,-78
2019-05-09T16:55:31.238Z,-78
2019-05-09T16:57:59.840Z,-79
2019-05-09T17:00:47.857Z,-78
2019-05-09T17:03:17.937Z,-78
2019-05-09T17:05:47.337Z,-77
2019-05-09T17:08:17.761Z,-77
2019-05-09T17:10:48.649Z,-77
2019-05-09T17:13:19.084Z,-77
2019-05-09T17:15:48.637Z,-78
2019-05-09T17:18:18.817Z,-78
2019-05-09T17:21:15.986Z,-79
2019-05-09T17:23:35.783Z,-78
2019-05-09T17:26:04.907Z,-78
2019-05-09T17:28:34.273Z,-78
2019-05-09T17:31:03.631Z,-78
2019-05-09T17:33:32.715Z,-77
2019-05-09T17:36:02.062Z,-77
2019-05-09T17:38:31.495Z,-77
2019-05-09T17:41:00.817Z,-78
2019-05-09T17:43:30.461Z,-79
2019-05-09T17:45:59.792Z,-77
2019-05-09T17:48:29.246Z,-79
2019-05-09T17:50:59.204Z,-78
2019-05-09T17:53:32.913Z,-78
2019-05-09T17:55:59.927Z,-78
2019-05-09T17:58:33.287Z,-78
2019-05-09T18:01:00.622Z,-77
2019-05-09T18:03:29.988Z,-78
2019-05-09T18:05:59.315Z,-78
2019-05-09T18:08:28.585Z,-77
2019-05-09T18:10:58.466Z,-78
2019-05-09T18:13:30.211Z,-77
2019-05-09T18:15:58.737Z,-77
2019-05-09T18:18:28.568Z,-77
2019-05-09T18:20:58.110Z,-77
2019-05-09T18:23:28.369Z,-76
2019-05-09T18:25:58.493Z,-77
2019-05-09T18:28:29.266Z,-76
2019-05-09T18:30:58.892Z,-75
2019-05-09T18:33:30.070Z,-78
2019-05-09T18:35:59.190Z,-78
2019-05-09T18:38:30.844Z,-77
2019-05-09T18:41:00.228Z,-78
2019-05-09T18:43:29.362Z,-78
2019-05-09T18:45:58.723Z,-78
2019-05-09T18:48:28.079Z,-78
2019-05-09T18:50:57.142Z,-77
2019-05-09T18:53:26.240Z,-78
2019-05-09T18:55:55.604Z,-78
2019-05-09T18:58:24.971Z,-76
2019-05-09T19:00:54.851Z,-77
2019-05-09T19:03:24.341Z,-78
2019-05-09T19:05:53.872Z,-77
2019-05-09T19:08:23.280Z,-78
2019-05-09T19:10:52.599Z,-78
2019-05-09T19:13:22.046Z,-78
2019-05-09T19:15:58.283Z,-78
2019-05-09T19:18:30.831Z,-78
2019-05-09T19:21:02.117Z,-76
2019-05-09T19:23:31.545Z,-78
2019-05-09T19:26:02.517Z,-78
2019-05-09T19:28:31.872Z,-78
2019-05-09T19:31:00.957Z,-78
2019-05-09T19:33:30.629Z,-78
2019-05-09T19:35:59.939Z,-78
2019-05-09T19:38:29.318Z,-78
2019-05-09T19:40:58.397Z,-78
2019-05-09T19:43:27.764Z,-78
2019-05-09T19:45:57.120Z,-78
2019-05-09T19:48:26.533Z,-75
2019-05-09T19:50:55.934Z,-78
2019-05-09T19:53:25.041Z,-77
2019-05-09T19:55:54.177Z,-76
2019-05-09T19:58:23.557Z,-77
2019-05-09T20:00:52.690Z,-77
2019-05-09T20:03:22.063Z,-78
2019-05-09T20:05:51.712Z,-76
2019-05-09T20:08:21.136Z,-77
2019-05-09T20:11:00.900Z,-77
2019-05-09T20:13:34.090Z,-76
2019-05-09T20:16:03.203Z,-75
2019-05-09T20:18:32.565Z,-77
2019-05-09T20:21:01.677Z,-76
2019-05-09T20:23:30.760Z,-76
2019-05-09T20:25:59.899Z,-76
2019-05-09T20:28:29.014Z,-75
2019-05-09T20:30:58.118Z,-75
2019-05-09T20:33:27.192Z,-75
2019-05-09T20:35:56.302Z,-78
2019-05-09T20:38:25.878Z,-77
2019-05-09T20:40:55.168Z,-78
2019-05-09T20:43:24.424Z,-76
2019-05-09T20:45:53.975Z,-78
2019-05-09T20:48:23.231Z,-78
2019-05-09T20:50:52.520Z,-77
2019-05-09T20:53:22.067Z,-77
2019-05-09T20:55:51.377Z,-76
2019-05-09T20:58:20.666Z,-77
2019-05-09T21:00:50.241Z,-76
2019-05-09T21:03:19.778Z,-78
2019-05-09T21:05:49.319Z,-78
2019-05-09T21:08:18.586Z,-77
2019-05-09T21:10:48.133Z,-77
2019-05-09T21:13:17.405Z,-77
2019-05-09T21:15:47.228Z,-77
2019-05-09T21:18:16.794Z,-78
2019-05-09T21:20:46.069Z,-76
2019-05-09T21:23:24.461Z,-77
2019-05-09T21:25:46.292Z,-76
2019-05-09T21:28:15.842Z,-76
2019-05-09T21:30:45.422Z,-77
2019-05-09T21:33:14.966Z,-77
2019-05-09T21:35:44.356Z,-78
2019-05-09T21:38:13.425Z,-78
2019-05-09T21:40:43.081Z,-78
2019-05-09T21:43:12.155Z,-78
2019-05-09T21:45:41.516Z,-78
2019-05-09T21:48:10.847Z,-78
2019-05-09T21:50:39.981Z,-78
2019-05-09T21:53:09.342Z,-78
2019-05-09T21:55:38.463Z,-77
2019-05-09T21:58:07.855Z,-78
2019-05-09T22:00:38.989Z,-78
2019-05-09T22:03:08.800Z,-78
2019-05-09T22:05:38.228Z,-78
2019-05-09T22:08:07.729Z,-77
2019-05-09T22:10:36.800Z,-78
2019-05-09T22:13:06.171Z,-78
2019-05-09T22:15:35.502Z,-78
2019-05-09T22:18:05.023Z,-78
2019-05-09T22:20:34.358Z,-78
2019-05-09T22:23:06.311Z,-78
2019-05-09T22:25:34.458Z,-78
2019-05-09T22:28:03.533Z,-77
2019-05-09T22:30:32.682Z,-78
2019-05-09T22:33:02.057Z,-78
2019-05-09T22:35:31.390Z,-78
2019-05-09T22:38:00.799Z,-77
2019-05-09T22:40:29.873Z,-78
2019-05-09T22:42:58.986Z,-78
2019-05-09T22:45:28.178Z,-78
2019-05-09T22:47:57.287Z,-77
2019-05-09T22:50:26.365Z,-76
2019-05-09T22:52:55.985Z,-78
2019-05-09T22:55:25.344Z,-77
2019-05-09T22:57:54.867Z,-77
2019-05-09T23:00:24.210Z,-77
2019-05-09T23:02:53.314Z,-78
2019-05-09T23:05:22.949Z,-78
2019-05-09T23:07:52.309Z,-78
2019-05-09T23:10:21.401Z,-78
2019-05-09T23:12:50.807Z,-78
2019-05-09T23:15:20.466Z,-78
2019-05-09T23:17:49.545Z,-77
2019-05-09T23:20:37.017Z,-77
2019-05-09T23:23:23.056Z,-76
2019-05-09T23:25:52.202Z,-78
2019-05-09T23:28:21.313Z,-77
2019-05-09T23:30:52.056Z,-78
2019-05-09T23:33:22.692Z,-78
2019-05-09T23:35:52.045Z,-78
2019-05-09T23:38:21.169Z,-78
2019-05-09T23:40:50.579Z,-78
2019-05-09T23:43:19.916Z,-78
2019-05-09T23:45:49.245Z,-77
2019-05-09T23:48:18.362Z,-77
2019-05-09T23:50:47.731Z,-78
2019-05-09T23:53:21.082Z,-77
2019-05-09T23:56:07.624Z,-77
2019-05-09T23:58:54.598Z,-77
